sensor_id;sensor_type;location;lat;lon;timestamp;pressure;altitude;pressure_sealevel;temperature
24714;BMP280;12820;51.580;5.010;2022-07-22T00:02:48;102169.94;;;19.33
24714;BMP280;12820;51.580;5.010;2022-07-22T00:07:51;102169.94;;;19.33
24714;BMP280;12820;51.580;5.010;2022-07-22T00:12:53;102160.63;;;19.32
24714;BMP280;12820;51.580;5.010;2022-07-22T00:17:55;102163.25;;;19.29
24714;BMP280;12820;51.580;5.010;2022-07-22T00:22:57;102165.88;;;19.26
24714;BMP280;12820;51.580;5.010;2022-07-22T00:27:59;102157.47;;;19.24
24714;BMP280;12820;51.580;5.010;2022-07-22T00:33:02;102159.22;;;19.22
24714;BMP280;12820;51.580;5.010;2022-07-22T00:38:05;102163.47;;;19.22
24714;BMP280;12820;51.580;5.010;2022-07-22T00:43:07;102149.94;;;19.20
24714;BMP280;12820;51.580;5.010;2022-07-22T00:48:09;102166.97;;;19.20
24714;BMP280;12820;51.580;5.010;2022-07-22T00:53:11;102155.06;;;19.19
24714;BMP280;12820;51.580;5.010;2022-07-22T00:58:13;102153.41;;;19.18
24714;BMP280;12820;51.580;5.010;2022-07-22T01:03:16;102152.69;;;19.13
24714;BMP280;12820;51.580;5.010;2022-07-22T01:08:18;102148.56;;;19.09
24714;BMP280;12820;51.580;5.010;2022-07-22T01:13:21;102141.88;;;19.05
24714;BMP280;12820;51.580;5.010;2022-07-22T01:18:24;102143.72;;;19.00
24714;BMP280;12820;51.580;5.010;2022-07-22T01:23:26;102143.84;;;18.96
24714;BMP280;12820;51.580;5.010;2022-07-22T01:28:29;102143.97;;;18.91
24714;BMP280;12820;51.580;5.010;2022-07-22T01:33:31;102139.91;;;18.85
24714;BMP280;12820;51.580;5.010;2022-07-22T01:38:33;102150.34;;;18.76
24714;BMP280;12820;51.580;5.010;2022-07-22T01:43:36;102151.34;;;18.70
24714;BMP280;12820;51.580;5.010;2022-07-22T01:48:40;102149.88;;;18.61
24714;BMP280;12820;51.580;5.010;2022-07-22T01:53:42;102141.53;;;18.56
24714;BMP280;12820;51.580;5.010;2022-07-22T01:58:45;102144.28;;;18.49
24714;BMP280;12820;51.580;5.010;2022-07-22T02:03:48;102144.44;;;18.43
24714;BMP280;12820;51.580;5.010;2022-07-22T02:08:51;102133.53;;;18.38
24714;BMP280;12820;51.580;5.010;2022-07-22T02:14:13;102142.97;;;18.33
24714;BMP280;12820;51.580;5.010;2022-07-22T02:19:16;102142.22;;;18.30
24714;BMP280;12820;51.580;5.010;2022-07-22T02:24:20;102131.25;;;18.26
24714;BMP280;12820;51.580;5.010;2022-07-22T02:29:23;102133.88;;;18.25
24714;BMP280;12820;51.580;5.010;2022-07-22T02:34:25;102136.44;;;18.23
24714;BMP280;12820;51.580;5.010;2022-07-22T02:39:27;102122.03;;;18.22
24714;BMP280;12820;51.580;5.010;2022-07-22T02:44:30;102124.59;;;18.22
24714;BMP280;12820;51.580;5.010;2022-07-22T02:49:33;102119.59;;;18.19
24714;BMP280;12820;51.580;5.010;2022-07-22T02:54:35;102105.22;;;18.17
24714;BMP280;12820;51.580;5.010;2022-07-22T02:59:38;102112.03;;;18.16
24714;BMP280;12820;51.580;5.010;2022-07-22T03:04:40;102101.00;;;18.16
24714;BMP280;12820;51.580;5.010;2022-07-22T03:09:42;102116.31;;;18.14
24714;BMP280;12820;51.580;5.010;2022-07-22T03:14:47;102111.31;;;18.12
24714;BMP280;12820;51.580;5.010;2022-07-22T03:19:49;102107.97;;;18.10
24714;BMP280;12820;51.580;5.010;2022-07-22T03:24:51;102114.88;;;18.05
24714;BMP280;12820;51.580;5.010;2022-07-22T03:29:54;102119.19;;;18.01
24714;BMP280;12820;51.580;5.010;2022-07-22T03:34:56;102118.50;;;17.95
24714;BMP280;12820;51.580;5.010;2022-07-22T03:40:07;102129.66;;;17.90
24714;BMP280;12820;51.580;5.010;2022-07-22T03:45:11;102127.22;;;17.85
24714;BMP280;12820;51.580;5.010;2022-07-22T03:50:14;102125.59;;;17.81
24714;BMP280;12820;51.580;5.010;2022-07-22T03:55:17;102130.75;;;17.78
24714;BMP280;12820;51.580;5.010;2022-07-22T04:00:21;102132.50;;;17.75
24714;BMP280;12820;51.580;5.010;2022-07-22T04:05:24;102132.56;;;17.74
24714;BMP280;12820;51.580;5.010;2022-07-22T04:10:26;102135.16;;;17.71
24714;BMP280;12820;51.580;5.010;2022-07-22T04:15:28;102130.94;;;17.70
24714;BMP280;12820;51.580;5.010;2022-07-22T04:20:35;102130.94;;;17.70
24714;BMP280;12820;51.580;5.010;2022-07-22T04:25:54;102134.38;;;17.69
24714;BMP280;12820;51.580;5.010;2022-07-22T04:30:56;102134.38;;;17.69
24714;BMP280;12820;51.580;5.010;2022-07-22T04:35:59;102126.69;;;17.70
24714;BMP280;12820;51.580;5.010;2022-07-22T04:41:01;102114.81;;;17.71
24714;BMP280;12820;51.580;5.010;2022-07-22T04:46:04;102116.47;;;17.73
24714;BMP280;12820;51.580;5.010;2022-07-22T04:51:09;102107.91;;;17.76
24714;BMP280;12820;51.580;5.010;2022-07-22T04:56:11;102109.50;;;17.81
24714;BMP280;12820;51.580;5.010;2022-07-22T05:01:13;102107.72;;;17.86
24714;BMP280;12820;51.580;5.010;2022-07-22T05:06:18;102109.28;;;17.91
24714;BMP280;12820;51.580;5.010;2022-07-22T05:11:21;102115.06;;;17.97
24714;BMP280;12820;51.580;5.010;2022-07-22T05:16:23;102110.66;;;18.04
24714;BMP280;12820;51.580;5.010;2022-07-22T05:21:26;102112.97;;;18.13
24714;BMP280;12820;51.580;5.010;2022-07-22T05:26:29;102109.41;;;18.19
24714;BMP280;12820;51.580;5.010;2022-07-22T05:31:33;102113.41;;;18.28
24714;BMP280;12820;51.580;5.010;2022-07-22T05:36:35;102130.97;;;18.38
24714;BMP280;12820;51.580;5.010;2022-07-22T05:41:37;102118.75;;;18.50
24714;BMP280;12820;51.580;5.010;2022-07-22T05:46:42;102127.72;;;18.64
24714;BMP280;12820;51.580;5.010;2022-07-22T05:51:44;102118.78;;;18.81
24714;BMP280;12820;51.580;5.010;2022-07-22T05:56:47;102120.09;;;18.95
24714;BMP280;12820;51.580;5.010;2022-07-22T06:01:49;102115.44;;;19.09
24714;BMP280;12820;51.580;5.010;2022-07-22T06:07:12;102107.47;;;19.19
24714;BMP280;12820;51.580;5.010;2022-07-22T06:12:16;102106.38;;;19.27
24714;BMP280;12820;51.580;5.010;2022-07-22T06:17:18;102101.00;;;19.36
24714;BMP280;12820;51.580;5.010;2022-07-22T06:22:21;102114.28;;;19.47
24714;BMP280;12820;51.580;5.010;2022-07-22T06:27:23;102104.56;;;19.59
24714;BMP280;12820;51.580;5.010;2022-07-22T06:32:27;102105.06;;;19.70
24714;BMP280;12820;51.580;5.010;2022-07-22T06:37:29;102115.06;;;19.77
24714;BMP280;12820;51.580;5.010;2022-07-22T06:42:52;102110.56;;;19.83
24714;BMP280;12820;51.580;5.010;2022-07-22T06:47:57;102111.22;;;19.90
24714;BMP280;12820;51.580;5.010;2022-07-22T06:53:00;102112.59;;;19.99
24714;BMP280;12820;51.580;5.010;2022-07-22T06:58:02;102113.97;;;20.09
24714;BMP280;12820;51.580;5.010;2022-07-22T07:03:04;102097.44;;;20.20
24714;BMP280;12820;51.580;5.010;2022-07-22T07:08:29;102100.38;;;20.34
24714;BMP280;12820;51.580;5.010;2022-07-22T07:13:31;102093.03;;;20.49
24714;BMP280;12820;51.580;5.010;2022-07-22T07:18:33;102088.78;;;20.72
24714;BMP280;12820;51.580;5.010;2022-07-22T07:23:36;102091.41;;;20.93
24714;BMP280;12820;51.580;5.010;2022-07-22T07:28:38;102094.28;;;21.06
24714;BMP280;12820;51.580;5.010;2022-07-22T07:33:48;102094.66;;;21.20
24714;BMP280;12820;51.580;5.010;2022-07-22T07:38:51;102084.75;;;21.34
24714;BMP280;12820;51.580;5.010;2022-07-22T07:43:54;102083.50;;;21.43
24714;BMP280;12820;51.580;5.010;2022-07-22T07:48:57;102081.47;;;21.51
24714;BMP280;12820;51.580;5.010;2022-07-22T07:54:01;102080.41;;;21.56
24714;BMP280;12820;51.580;5.010;2022-07-22T07:59:04;102071.00;;;21.57
24714;BMP280;12820;51.580;5.010;2022-07-22T08:04:26;102075.75;;;21.66
24714;BMP280;12820;51.580;5.010;2022-07-22T08:09:46;102077.91;;;21.76
24714;BMP280;12820;51.580;5.010;2022-07-22T08:15:02;102071.38;;;21.90
24714;BMP280;12820;51.580;5.010;2022-07-22T08:20:22;102079.56;;;21.98
24714;BMP280;12820;51.580;5.010;2022-07-22T08:25:24;102071.59;;;22.05
24714;BMP280;12820;51.580;5.010;2022-07-22T08:30:28;102073.66;;;22.15
24714;BMP280;12820;51.580;5.010;2022-07-22T08:35:31;102069.53;;;22.32
24714;BMP280;12820;51.580;5.010;2022-07-22T08:40:34;102058.63;;;22.47
24714;BMP280;12820;51.580;5.010;2022-07-22T08:45:40;102050.75;;;22.71
24714;BMP280;12820;51.580;5.010;2022-07-22T08:50:43;102045.06;;;23.00
24714;BMP280;12820;51.580;5.010;2022-07-22T08:55:56;102054.63;;;23.15
24714;BMP280;12820;51.580;5.010;2022-07-22T09:01:09;102041.28;;;23.27
24714;BMP280;12820;51.580;5.010;2022-07-22T09:06:19;102056.97;;;23.55
24714;BMP280;12820;51.580;5.010;2022-07-22T09:11:24;102039.72;;;23.75
24714;BMP280;12820;51.580;5.010;2022-07-22T09:16:47;102042.97;;;23.95
24714;BMP280;12820;51.580;5.010;2022-07-22T09:22:02;102037.84;;;24.12
24714;BMP280;12820;51.580;5.010;2022-07-22T09:27:28;102027.56;;;24.28
24714;BMP280;12820;51.580;5.010;2022-07-22T09:32:52;102029.56;;;24.39
24714;BMP280;12820;51.580;5.010;2022-07-22T09:38:31;102024.00;;;24.62
24714;BMP280;12820;51.580;5.010;2022-07-22T09:43:35;102033.41;;;24.78
24714;BMP280;12820;51.580;5.010;2022-07-22T09:48:41;102026.31;;;24.98
24714;BMP280;12820;51.580;5.010;2022-07-22T09:54:09;102021.41;;;25.39
24714;BMP280;12820;51.580;5.010;2022-07-22T09:59:12;102025.13;;;25.78
24714;BMP280;12820;51.580;5.010;2022-07-22T10:04:19;102031.22;;;25.62
24714;BMP280;12820;51.580;5.010;2022-07-22T10:09:22;102029.00;;;25.27
24714;BMP280;12820;51.580;5.010;2022-07-22T10:14:25;102030.88;;;25.09
24714;BMP280;12820;51.580;5.010;2022-07-22T10:19:32;102021.31;;;24.95
24714;BMP280;12820;51.580;5.010;2022-07-22T10:25:01;102026.56;;;25.09
24714;BMP280;12820;51.580;5.010;2022-07-22T10:30:04;102026.75;;;25.21
24714;BMP280;12820;51.580;5.010;2022-07-22T10:40:12;102025.38;;;25.14
24714;BMP280;12820;51.580;5.010;2022-07-22T10:45:17;102028.69;;;25.01
24714;BMP280;12820;51.580;5.010;2022-07-22T10:55:59;102001.47;;;24.97
24714;BMP280;12820;51.580;5.010;2022-07-22T11:01:07;101990.44;;;25.26
24714;BMP280;12820;51.580;5.010;2022-07-22T11:11:44;101997.38;;;25.54
24714;BMP280;12820;51.580;5.010;2022-07-22T11:16:49;101997.59;;;25.65
24714;BMP280;12820;51.580;5.010;2022-07-22T11:21:54;101995.13;;;25.92
24714;BMP280;12820;51.580;5.010;2022-07-22T11:26:57;101970.41;;;26.17
24714;BMP280;12820;51.580;5.010;2022-07-22T11:32:08;101966.25;;;26.28
24714;BMP280;12820;51.580;5.010;2022-07-22T11:37:15;101946.06;;;26.34
24714;BMP280;12820;51.580;5.010;2022-07-22T11:42:18;101944.69;;;26.42
24714;BMP280;12820;51.580;5.010;2022-07-22T11:47:20;101932.47;;;26.59
24714;BMP280;12820;51.580;5.010;2022-07-22T11:52:22;101921.22;;;26.86
24714;BMP280;12820;51.580;5.010;2022-07-22T11:57:24;101907.97;;;27.18
24714;BMP280;12820;51.580;5.010;2022-07-22T12:02:27;101904.19;;;27.47
24714;BMP280;12820;51.580;5.010;2022-07-22T12:07:34;101906.06;;;27.45
24714;BMP280;12820;51.580;5.010;2022-07-22T12:12:39;101907.69;;;27.46
24714;BMP280;12820;51.580;5.010;2022-07-22T12:17:42;101905.25;;;27.57
24714;BMP280;12820;51.580;5.010;2022-07-22T12:22:45;101901.50;;;27.75
24714;BMP280;12820;51.580;5.010;2022-07-22T12:28:00;101905.59;;;27.89
24714;BMP280;12820;51.580;5.010;2022-07-22T12:33:03;101890.72;;;27.93
24714;BMP280;12820;51.580;5.010;2022-07-22T12:38:09;101888.53;;;27.99
24714;BMP280;12820;51.580;5.010;2022-07-22T12:43:11;101885.34;;;28.08
24714;BMP280;12820;51.580;5.010;2022-07-22T12:48:13;101893.38;;;28.16
24714;BMP280;12820;51.580;5.010;2022-07-22T12:53:17;101883.59;;;28.20
24714;BMP280;12820;51.580;5.010;2022-07-22T12:58:23;101873.94;;;28.22
24714;BMP280;12820;51.580;5.010;2022-07-22T13:03:26;101886.06;;;28.22
24714;BMP280;12820;51.580;5.010;2022-07-22T13:08:29;101879.94;;;28.23
24714;BMP280;12820;51.580;5.010;2022-07-22T13:13:46;101886.13;;;28.33
24714;BMP280;12820;51.580;5.010;2022-07-22T13:18:50;101883.22;;;28.37
24714;BMP280;12820;51.580;5.010;2022-07-22T13:23:53;101895.66;;;28.32
24714;BMP280;12820;51.580;5.010;2022-07-22T13:28:55;101884.94;;;28.26
24714;BMP280;12820;51.580;5.010;2022-07-22T13:33:58;101884.28;;;28.22
24714;BMP280;12820;51.580;5.010;2022-07-22T13:39:01;101869.00;;;28.19
24714;BMP280;12820;51.580;5.010;2022-07-22T13:44:04;101873.25;;;28.20
24714;BMP280;12820;51.580;5.010;2022-07-22T13:49:12;101877.50;;;28.21
24714;BMP280;12820;51.580;5.010;2022-07-22T13:54:14;101873.25;;;28.20
24714;BMP280;12820;51.580;5.010;2022-07-22T13:59:16;101874.56;;;28.26
24714;BMP280;12820;51.580;5.010;2022-07-22T14:04:21;101872.09;;;28.24
24714;BMP280;12820;51.580;5.010;2022-07-22T14:09:23;101867.84;;;28.23
24714;BMP280;12820;51.580;5.010;2022-07-22T14:14:41;101877.66;;;28.31
24714;BMP280;12820;51.580;5.010;2022-07-22T14:19:43;101874.84;;;28.34
24714;BMP280;12820;51.580;5.010;2022-07-22T14:24:45;101835.22;;;28.33
24714;BMP280;12820;51.580;5.010;2022-07-22T14:29:47;101855.06;;;28.45
24714;BMP280;12820;51.580;5.010;2022-07-22T14:34:49;101846.72;;;28.64
24714;BMP280;12820;51.580;5.010;2022-07-22T14:39:51;101863.25;;;28.97
24714;BMP280;12820;51.580;5.010;2022-07-22T14:44:54;101859.06;;;29.07
24714;BMP280;12820;51.580;5.010;2022-07-22T14:49:56;101849.97;;;29.01
24714;BMP280;12820;51.580;5.010;2022-07-22T14:54:58;101816.34;;;29.12
24714;BMP280;12820;51.580;5.010;2022-07-22T15:00:00;101824.13;;;29.23
24714;BMP280;12820;51.580;5.010;2022-07-22T15:05:03;101825.31;;;29.19
24714;BMP280;12820;51.580;5.010;2022-07-22T15:10:06;101820.69;;;29.11
24714;BMP280;12820;51.580;5.010;2022-07-22T15:15:10;101819.59;;;29.03
24714;BMP280;12820;51.580;5.010;2022-07-22T15:20:12;101823.94;;;28.92
24714;BMP280;12820;51.580;5.010;2022-07-22T15:25:15;101837.56;;;28.83
24714;BMP280;12820;51.580;5.010;2022-07-22T15:30:18;101842.97;;;28.68
24714;BMP280;12820;51.580;5.010;2022-07-22T15:35:24;101816.03;;;28.48
24714;BMP280;12820;51.580;5.010;2022-07-22T15:40:27;101808.84;;;28.40
24714;BMP280;12820;51.580;5.010;2022-07-22T15:45:31;101800.69;;;28.34
24714;BMP280;12820;51.580;5.010;2022-07-22T15:50:34;101793.78;;;28.22
24714;BMP280;12820;51.580;5.010;2022-07-22T15:55:37;101796.59;;;28.19
24714;BMP280;12820;51.580;5.010;2022-07-22T16:00:41;101794.72;;;28.21
24714;BMP280;12820;51.580;5.010;2022-07-22T16:05:43;101804.25;;;28.21
24714;BMP280;12820;51.580;5.010;2022-07-22T16:10:46;101794.84;;;28.20
24714;BMP280;12820;51.580;5.010;2022-07-22T16:15:48;101798.63;;;28.15
24714;BMP280;12820;51.580;5.010;2022-07-22T16:20:51;101780.13;;;28.08
24714;BMP280;12820;51.580;5.010;2022-07-22T16:25:53;101781.94;;;27.96
24714;BMP280;12820;51.580;5.010;2022-07-22T16:30:56;101797.81;;;27.79
24714;BMP280;12820;51.580;5.010;2022-07-22T16:35:58;101784.88;;;27.67
24714;BMP280;12820;51.580;5.010;2022-07-22T16:41:00;101776.63;;;27.62
24714;BMP280;12820;51.580;5.010;2022-07-22T16:46:03;101774.03;;;27.50
24714;BMP280;12820;51.580;5.010;2022-07-22T16:51:05;101764.00;;;27.33
24714;BMP280;12820;51.580;5.010;2022-07-22T16:56:07;101762.75;;;27.14
24714;BMP280;12820;51.580;5.010;2022-07-22T17:01:09;101755.59;;;26.93
24714;BMP280;12820;51.580;5.010;2022-07-22T17:06:12;101749.88;;;26.76
24714;BMP280;12820;51.580;5.010;2022-07-22T17:11:14;101735.38;;;26.62
24714;BMP280;12820;51.580;5.010;2022-07-22T17:16:16;101728.84;;;26.44
24714;BMP280;12820;51.580;5.010;2022-07-22T17:21:19;101736.69;;;26.29
24714;BMP280;12820;51.580;5.010;2022-07-22T17:26:21;101733.53;;;26.12
24714;BMP280;12820;51.580;5.010;2022-07-22T17:31:24;101734.50;;;25.98
24714;BMP280;12820;51.580;5.010;2022-07-22T17:36:26;101740.66;;;25.82
24714;BMP280;12820;51.580;5.010;2022-07-22T17:41:28;101755.41;;;25.66
24714;BMP280;12820;51.580;5.010;2022-07-22T17:46:31;101764.22;;;25.48
24714;BMP280;12820;51.580;5.010;2022-07-22T17:51:33;101762.69;;;25.32
24714;BMP280;12820;51.580;5.010;2022-07-22T17:56:35;101761.97;;;25.15
24714;BMP280;12820;51.580;5.010;2022-07-22T18:01:37;101766.25;;;25.01
24714;BMP280;12820;51.580;5.010;2022-07-22T18:06:40;101773.19;;;24.86
24714;BMP280;12820;51.580;5.010;2022-07-22T18:11:42;101770.75;;;24.69
24714;BMP280;12820;51.580;5.010;2022-07-22T18:16:45;101774.41;;;24.50
24714;BMP280;12820;51.580;5.010;2022-07-22T18:21:47;101778.81;;;24.33
24714;BMP280;12820;51.580;5.010;2022-07-22T18:26:50;101774.69;;;24.16
24714;BMP280;12820;51.580;5.010;2022-07-22T18:31:52;101787.63;;;23.99
24714;BMP280;12820;51.580;5.010;2022-07-22T18:36:54;101782.44;;;23.84
24714;BMP280;12820;51.580;5.010;2022-07-22T18:41:56;101770.31;;;23.71
24714;BMP280;12820;51.580;5.010;2022-07-22T18:46:58;101772.63;;;23.60
24714;BMP280;12820;51.580;5.010;2022-07-22T18:52:03;101756.22;;;23.48
24714;BMP280;12820;51.580;5.010;2022-07-22T18:57:05;101775.69;;;23.35
24714;BMP280;12820;51.580;5.010;2022-07-22T19:02:07;101780.59;;;23.23
24714;BMP280;12820;51.580;5.010;2022-07-22T19:07:09;101773.44;;;23.13
24714;BMP280;12820;51.580;5.010;2022-07-22T19:12:12;101764.69;;;23.00
24714;BMP280;12820;51.580;5.010;2022-07-22T19:17:14;101768.44;;;22.93
24714;BMP280;12820;51.580;5.010;2022-07-22T19:22:16;101768.97;;;22.83
24714;BMP280;12820;51.580;5.010;2022-07-22T19:27:19;101760.00;;;22.75
24714;BMP280;12820;51.580;5.010;2022-07-22T19:32:21;101768.88;;;22.68
24714;BMP280;12820;51.580;5.010;2022-07-22T19:37:24;101774.31;;;22.62
24714;BMP280;12820;51.580;5.010;2022-07-22T19:42:29;101779.81;;;22.55
24714;BMP280;12820;51.580;5.010;2022-07-22T19:47:31;101781.94;;;22.45
24714;BMP280;12820;51.580;5.010;2022-07-22T19:52:33;101780.66;;;22.37
24714;BMP280;12820;51.580;5.010;2022-07-22T19:57:37;101790.41;;;22.29
24714;BMP280;12820;51.580;5.010;2022-07-22T20:02:39;101786.41;;;22.24
24714;BMP280;12820;51.580;5.010;2022-07-22T20:07:42;101797.84;;;22.17
24714;BMP280;12820;51.580;5.010;2022-07-22T20:12:44;101808.44;;;22.10
24714;BMP280;12820;51.580;5.010;2022-07-22T20:17:46;101792.56;;;22.02
24714;BMP280;12820;51.580;5.010;2022-07-22T20:22:48;101808.13;;;21.98
24714;BMP280;12820;51.580;5.010;2022-07-22T20:27:50;101835.81;;;21.90
24714;BMP280;12820;51.580;5.010;2022-07-22T20:32:52;101824.06;;;21.86
24714;BMP280;12820;51.580;5.010;2022-07-22T20:37:54;101824.19;;;21.83
24714;BMP280;12820;51.580;5.010;2022-07-22T20:42:57;101820.97;;;21.78
24714;BMP280;12820;51.580;5.010;2022-07-22T20:47:59;101809.19;;;21.74
24714;BMP280;12820;51.580;5.010;2022-07-22T20:53:02;101831.53;;;21.71
24714;BMP280;12820;51.580;5.010;2022-07-22T20:58:05;101836.84;;;21.67
24714;BMP280;12820;51.580;5.010;2022-07-22T21:03:07;101839.53;;;21.64
24714;BMP280;12820;51.580;5.010;2022-07-22T21:08:10;101837.13;;;21.61
24714;BMP280;12820;51.580;5.010;2022-07-22T21:13:14;101840.63;;;21.58
24714;BMP280;12820;51.580;5.010;2022-07-22T21:18:19;101845.94;;;21.54
24714;BMP280;12820;51.580;5.010;2022-07-22T21:23:21;101837.56;;;21.51
24714;BMP280;12820;51.580;5.010;2022-07-22T21:28:23;101827.53;;;21.46
24714;BMP280;12820;51.580;5.010;2022-07-22T21:33:25;101832.78;;;21.43
24714;BMP280;12820;51.580;5.010;2022-07-22T21:38:29;101826.00;;;21.42
24714;BMP280;12820;51.580;5.010;2022-07-22T21:43:31;101816.88;;;21.37
24714;BMP280;12820;51.580;5.010;2022-07-22T21:48:34;101820.44;;;21.33
24714;BMP280;12820;51.580;5.010;2022-07-22T21:53:36;101835.06;;;21.30
24714;BMP280;12820;51.580;5.010;2022-07-22T21:58:38;101829.25;;;21.26
24714;BMP280;12820;51.580;5.010;2022-07-22T22:03:40;101835.44;;;21.21
24714;BMP280;12820;51.580;5.010;2022-07-22T22:08:42;101836.63;;;21.14
24714;BMP280;12820;51.580;5.010;2022-07-22T22:13:44;101830.03;;;21.07
24714;BMP280;12820;51.580;5.010;2022-07-22T22:18:46;101825.25;;;21.00
24714;BMP280;12820;51.580;5.010;2022-07-22T22:23:50;101834.88;;;20.94
24714;BMP280;12820;51.580;5.010;2022-07-22T22:28:52;101837.75;;;20.86
24714;BMP280;12820;51.580;5.010;2022-07-22T22:33:54;101840.59;;;20.79
24714;BMP280;12820;51.580;5.010;2022-07-22T22:38:56;101852.88;;;20.71
24714;BMP280;12820;51.580;5.010;2022-07-22T22:44:00;101849.75;;;20.64
24714;BMP280;12820;51.580;5.010;2022-07-22T22:49:02;101852.56;;;20.58
24714;BMP280;12820;51.580;5.010;2022-07-22T22:54:06;101858.78;;;20.51
24714;BMP280;12820;51.580;5.010;2022-07-22T22:59:08;101857.25;;;20.47
24714;BMP280;12820;51.580;5.010;2022-07-22T23:04:11;101856.47;;;20.45
24714;BMP280;12820;51.580;5.010;2022-07-22T23:09:13;101851.53;;;20.41
24714;BMP280;12820;51.580;5.010;2022-07-22T23:14:16;101851.66;;;20.38
24714;BMP280;12820;51.580;5.010;2022-07-22T23:19:18;101845.84;;;20.34
24714;BMP280;12820;51.580;5.010;2022-07-22T23:24:21;101843.44;;;20.30
24714;BMP280;12820;51.580;5.010;2022-07-22T23:29:23;101840.31;;;20.22
24714;BMP280;12820;51.580;5.010;2022-07-22T23:34:26;101839.69;;;20.16
24714;BMP280;12820;51.580;5.010;2022-07-22T23:39:29;101839.84;;;20.11
24714;BMP280;12820;51.580;5.010;2022-07-22T23:44:31;101837.56;;;20.06
24714;BMP280;12820;51.580;5.010;2022-07-22T23:49:33;101838.59;;;20.00
24714;BMP280;12820;51.580;5.010;2022-07-22T23:54:35;101835.38;;;19.95
24714;BMP280;12820;51.580;5.010;2022-07-22T23:59:37;101830.50;;;19.90
